createdAt,value
2023-05-20T10:06:56.245Z,9.20
2023-05-20T10:09:52.787Z,9.02
2023-05-20T10:12:39.212Z,8.48
2023-05-20T10:15:31.158Z,8.43
2023-05-20T10:18:01.596Z,8.25
2023-05-20T10:20:28.634Z,8.35
2023-05-20T10:22:57.447Z,8.85
2023-05-20T10:25:28.639Z,7.95
2023-05-20T10:28:08.179Z,7.97
2023-05-20T10:30:35.794Z,10.45
2023-05-20T10:33:06.763Z,9.15
2023-05-20T10:35:33.942Z,9.52
2023-05-20T10:38:11.997Z,9.45
2023-05-20T10:40:39.537Z,8.98
2023-05-20T10:43:15.440Z,9.27
2023-05-20T10:45:53.470Z,8.63
2023-05-20T10:48:23.671Z,10.35
2023-05-20T10:50:50.752Z,10.32
2023-05-20T10:53:29.752Z,9.95
2023-05-20T10:56:00.143Z,10.18
2023-05-20T10:58:27.167Z,10.30
2023-05-20T11:00:56.096Z,10.38
2023-05-20T11:03:24.349Z,10.70
2023-05-20T11:05:51.791Z,10.13
2023-05-20T11:08:28.631Z,9.75
2023-05-20T11:10:59.176Z,11.05
2023-05-20T11:13:27.158Z,10.52
2023-05-20T11:15:54.434Z,10.68
2023-05-20T11:18:21.395Z,10.38
2023-05-20T11:20:53.645Z,10.63
2023-05-20T11:23:20.460Z,11.27
2023-05-20T11:25:47.298Z,12.13
2023-05-20T11:28:14.929Z,15.55
2023-05-20T11:30:43.399Z,11.75
2023-05-20T11:33:13.051Z,9.13
2023-05-20T11:35:49.514Z,11.55
2023-05-20T11:38:17.961Z,11.18
2023-05-20T11:40:55.607Z,10.38
2023-05-20T11:43:24.200Z,10.68
2023-05-20T11:45:56.740Z,9.90
2023-05-20T11:48:24.476Z,10.82
2023-05-20T11:50:54.192Z,11.68
2023-05-20T11:53:22.692Z,11.45
2023-05-20T11:55:54.129Z,10.50
2023-05-20T11:58:25.205Z,10.50
2023-05-20T12:00:57.094Z,11.30
2023-05-20T12:03:29.249Z,11.00
2023-05-20T12:05:56.345Z,11.73
2023-05-20T12:08:23.234Z,11.35
2023-05-20T12:10:50.236Z,12.02
2023-05-20T12:13:17.074Z,11.45
2023-05-20T12:15:43.967Z,9.93
2023-05-20T12:18:11.428Z,10.85
2023-05-20T12:20:39.136Z,11.05
2023-05-20T12:23:06.075Z,11.65
2023-05-20T12:25:32.976Z,11.27
2023-05-20T12:28:02.527Z,10.95
2023-05-20T12:30:29.549Z,10.45
2023-05-20T12:32:56.843Z,10.98
2023-05-20T12:35:41.851Z,11.80
2023-05-20T12:38:09.008Z,10.93
2023-05-20T12:40:36.640Z,10.48
2023-05-20T12:43:04.936Z,10.25
2023-05-20T12:45:31.933Z,9.93
2023-05-20T12:47:59.345Z,10.02
2023-05-20T12:50:26.934Z,10.50
2023-05-20T12:52:53.889Z,10.63
2023-05-20T12:55:20.870Z,10.77
2023-05-20T12:57:48.058Z,10.20
2023-05-20T13:00:15.648Z,10.18
2023-05-20T13:02:43.619Z,8.25
2023-05-20T13:05:11.567Z,9.57
2023-05-20T13:07:38.924Z,10.20
2023-05-20T13:10:07.459Z,10.45
2023-05-20T13:12:35.078Z,10.27
2023-05-20T13:15:02.087Z,9.95
2023-05-20T13:17:28.964Z,9.52
2023-05-20T13:19:55.945Z,8.75
2023-05-20T13:22:23.127Z,11.10
2023-05-20T13:24:50.067Z,11.35
2023-05-20T13:27:16.951Z,11.43
2023-05-20T13:29:43.832Z,11.25
2023-05-20T13:32:10.780Z,11.63
2023-05-20T13:34:38.801Z,11.77
2023-05-20T13:37:06.194Z,10.48
2023-05-20T13:39:33.474Z,11.00
2023-05-20T13:42:00.503Z,11.55
2023-05-20T13:44:27.394Z,11.35
2023-05-20T13:46:54.429Z,12.93
2023-05-20T13:49:21.992Z,12.52
2023-05-20T13:51:48.901Z,11.15
2023-05-20T13:54:16.143Z,11.10
2023-05-20T13:56:45.999Z,12.50
2023-05-20T13:59:12.773Z,12.00
2023-05-20T14:01:44.940Z,11.85
2023-05-20T14:04:12.687Z,12.40
2023-05-20T14:06:39.986Z,11.90
2023-05-20T14:09:09.007Z,12.18
2023-05-20T14:11:36.118Z,11.98
2023-05-20T14:14:02.999Z,12.80
2023-05-20T14:16:30.003Z,11.48
2023-05-20T14:18:57.050Z,11.35
2023-05-20T14:21:26.757Z,11.60
2023-05-20T14:23:53.654Z,11.40
2023-05-20T14:26:21.609Z,11.30
2023-05-20T14:28:51.029Z,12.70
2023-05-20T14:31:17.904Z,11.85
2023-05-20T14:33:44.845Z,11.85
2023-05-20T14:36:11.846Z,11.43
2023-05-20T14:38:38.879Z,11.48
2023-05-20T14:41:05.791Z,12.18
2023-05-20T14:43:32.838Z,12.02
2023-05-20T14:45:59.934Z,12.65
2023-05-20T14:48:26.792Z,11.50
2023-05-20T14:50:53.612Z,10.88
2023-05-20T14:53:20.650Z,11.70
2023-05-20T14:55:47.605Z,12.07
2023-05-20T14:58:14.647Z,11.85
2023-05-20T15:00:42.010Z,12.43
2023-05-20T15:03:12.015Z,12.07
2023-05-20T15:05:39.190Z,11.82
2023-05-20T15:08:06.340Z,12.38
2023-05-20T15:10:36.047Z,12.60
2023-05-20T15:13:03.032Z,12.18
2023-05-20T15:15:29.844Z,11.95
2023-05-20T15:17:56.764Z,11.98
2023-05-20T15:20:26.486Z,13.32
2023-05-20T15:22:54.190Z,12.95
2023-05-20T15:25:21.026Z,11.90
2023-05-20T15:27:50.219Z,11.38
2023-05-20T15:30:17.263Z,11.98
2023-05-20T15:32:44.180Z,10.65
2023-05-20T15:35:11.086Z,11.38
2023-05-20T15:37:38.644Z,12.20
2023-05-20T15:40:06.645Z,11.27
2023-05-20T15:42:33.487Z,10.77
2023-05-20T15:45:00.320Z,11.85
2023-05-20T15:47:27.183Z,10.85
2023-05-20T15:49:54.865Z,10.75
2023-05-20T15:52:21.765Z,11.15
2023-05-20T15:54:48.653Z,11.52
2023-05-20T15:57:15.532Z,11.35
2023-05-20T15:59:42.362Z,10.52
2023-05-20T16:02:09.301Z,11.38
2023-05-20T16:04:36.231Z,9.77
2023-05-20T16:07:03.116Z,10.02
2023-05-20T16:09:30.206Z,10.15
2023-05-20T16:11:57.139Z,11.38
2023-05-20T16:14:24.039Z,10.63
2023-05-20T16:16:50.971Z,11.70
2023-05-20T16:19:17.827Z,12.48
2023-05-20T16:21:44.921Z,9.77
2023-05-20T16:24:14.141Z,11.35
2023-05-20T16:26:41.013Z,12.18
2023-05-20T16:29:07.866Z,10.65
2023-05-20T16:31:34.856Z,11.45
2023-05-20T16:34:04.035Z,11.38
2023-05-20T16:36:31.109Z,10.85
2023-05-20T16:38:57.963Z,11.98
2023-05-20T16:41:24.833Z,11.43
2023-05-20T16:43:51.608Z,12.77
2023-05-20T16:46:18.586Z,10.30
2023-05-20T16:48:45.533Z,10.88
2023-05-20T16:51:12.398Z,11.52
2023-05-20T16:53:39.307Z,11.50
2023-05-20T16:56:07.749Z,10.90
2023-05-20T16:58:34.678Z,11.73
2023-05-20T17:01:02.032Z,12.23
2023-05-20T17:03:28.869Z,12.00
2023-05-20T17:05:55.899Z,11.32
2023-05-20T17:08:22.891Z,11.25
2023-05-20T17:10:52.442Z,12.85
2023-05-20T17:13:21.028Z,11.73
2023-05-20T17:15:51.082Z,11.20
2023-05-20T17:18:17.945Z,11.65
2023-05-20T17:20:44.868Z,11.88
2023-05-20T17:23:12.887Z,12.05
2023-05-20T17:25:39.723Z,11.80
2023-05-20T17:28:06.785Z,11.88
2023-05-20T17:30:33.880Z,12.25
2023-05-20T17:33:01.140Z,12.32
2023-05-20T17:35:28.220Z,12.77
2023-05-20T17:37:55.259Z,11.77
2023-05-20T17:40:22.205Z,11.50
2023-05-20T17:42:49.188Z,12.40
2023-05-20T17:45:17.376Z,12.80
2023-05-20T17:47:44.264Z,15.68
2023-05-20T17:50:11.434Z,16.40
2023-05-20T17:52:38.267Z,14.52
2023-05-20T17:55:06.629Z,15.52
2023-05-20T17:57:33.701Z,15.40
2023-05-20T18:00:00.610Z,15.32
2023-05-20T18:02:27.584Z,15.70
2023-05-20T18:04:54.473Z,15.55
2023-05-20T18:07:21.271Z,16.67
2023-05-20T18:09:48.084Z,14.93
2023-05-20T18:12:15.004Z,16.10
2023-05-20T18:14:41.965Z,15.13
2023-05-20T18:17:08.801Z,16.05
2023-05-20T18:19:35.757Z,16.08
2023-05-20T18:22:07.306Z,15.52
2023-05-20T18:24:34.330Z,14.90
2023-05-20T18:27:01.368Z,16.25
2023-05-20T18:29:28.170Z,16.45
2023-05-20T18:31:55.099Z,15.27
2023-05-20T18:34:22.060Z,16.05
2023-05-20T18:36:49.431Z,15.68
2023-05-20T18:39:20.340Z,15.25
2023-05-20T18:41:48.103Z,16.58
2023-05-20T18:44:17.353Z,15.00
2023-05-20T18:46:44.353Z,14.15
2023-05-20T18:49:11.551Z,13.82
2023-05-20T18:51:39.329Z,14.50
2023-05-20T18:54:07.445Z,15.52
2023-05-20T18:56:34.675Z,15.60
2023-05-20T18:59:01.656Z,15.77
2023-05-20T19:01:28.566Z,14.25
2023-05-20T19:03:55.445Z,13.52
2023-05-20T19:06:27.025Z,13.07
2023-05-20T19:08:54.667Z,14.83
2023-05-20T19:11:23.474Z,13.95
2023-05-20T19:13:50.407Z,14.80
2023-05-20T19:16:17.325Z,13.38
2023-05-20T19:18:44.219Z,13.23
2023-05-20T19:21:11.232Z,13.15
2023-05-20T19:23:38.098Z,13.45
2023-05-20T19:26:05.048Z,13.55
2023-05-20T19:28:31.897Z,12.23
